Lycksele, Lycksele Airport (ESNL)

NameLycksele Airport
CityLycksele
CountrySweden
ICAOESNL
IATALYC
Altitude215 m
CoordinatesGoogle Map
Live Air TrafficLiveATC.net
METARESNL 171350Z AUTO 06004KT 020V090 9999 FEW068/// 17/08 Q1012
2019-07-17 13:50:00 Wind: Northeast (60°) 2.06 m/s - Visibility: > 10000 m - Temperature: 17 °C - Dew point: 8 °C - Humidity: 55.6% - Pressure: 1012 hPa

Sorry, no flights used the airport in this database.